Garden City, Colorado
Current Conditions -  °F | °C
As of 2:15 PM on Sunday 23 Nov 2014 (Local Time) from KGXY Reporting Station
Few Clouds Few Clouds  
Wind Chill: 35°   Ceiling: Unl
Heat Index: 45°   Visibility: 10mi
Dew Point: 12°   Wind: 30mph
Humidity: 27%   Direction: 320°NW
Pressure: 29.78"   Gusts: 38mph
Location:  40.4475°N, 104.686°W
Report Text: KGXY 232115Z AUTO 32026G33KT 10SM FEW080 FEW100 07/M11 A2978 RMK AO1
Loading
Personal Weather Stations






























Interactive Weather Map New forecast layout! Learn more

10-Day Weather Forecast

Advertisements
Track Severe Weather on mobile